sensor_id;sensor_type;location;lat;lon;timestamp;P1;durP1;ratioP1;P2;durP2;ratioP2
11481;SDS011;5797;51.662;6.748;2022-07-23T00:02:17;1.10;;;1.00;;
11481;SDS011;5797;51.662;6.748;2022-07-23T00:04:46;1.07;;;1.03;;
11481;SDS011;5797;51.662;6.748;2022-07-23T00:07:14;0.93;;;0.93;;
11481;SDS011;5797;51.662;6.748;2022-07-23T00:09:44;1.63;;;0.80;;
11481;SDS011;5797;51.662;6.748;2022-07-23T00:12:12;1.30;;;1.20;;
11481;SDS011;5797;51.662;6.748;2022-07-23T00:14:41;0.77;;;0.77;;
11481;SDS011;5797;51.662;6.748;2022-07-23T00:17:10;0.90;;;0.90;;
11481;SDS011;5797;51.662;6.748;2022-07-23T00:19:38;0.87;;;0.87;;
11481;SDS011;5797;51.662;6.748;2022-07-23T00:22:06;1.40;;;1.30;;
11481;SDS011;5797;51.662;6.748;2022-07-23T00:24:34;1.30;;;0.90;;
11481;SDS011;5797;51.662;6.748;2022-07-23T00:27:02;0.80;;;0.80;;
11481;SDS011;5797;51.662;6.748;2022-07-23T00:29:31;0.67;;;0.67;;
11481;SDS011;5797;51.662;6.748;2022-07-23T00:31:59;1.07;;;1.00;;
11481;SDS011;5797;51.662;6.748;2022-07-23T00:34:29;1.30;;;1.20;;
11481;SDS011;5797;51.662;6.748;2022-07-23T00:36:57;0.90;;;0.90;;
11481;SDS011;5797;51.662;6.748;2022-07-23T00:39:25;0.80;;;0.80;;
11481;SDS011;5797;51.662;6.748;2022-07-23T00:41:53;0.40;;;0.40;;
11481;SDS011;5797;51.662;6.748;2022-07-23T00:44:22;1.17;;;1.00;;
11481;SDS011;5797;51.662;6.748;2022-07-23T00:46:52;1.20;;;1.00;;
11481;SDS011;5797;51.662;6.748;2022-07-23T00:49:21;0.70;;;0.70;;
11481;SDS011;5797;51.662;6.748;2022-07-23T00:51:52;1.13;;;1.03;;
11481;SDS011;5797;51.662;6.748;2022-07-23T00:54:21;2.10;;;1.17;;
11481;SDS011;5797;51.662;6.748;2022-07-23T00:56:50;1.00;;;1.00;;
11481;SDS011;5797;51.662;6.748;2022-07-23T00:59:19;0.70;;;0.70;;
11481;SDS011;5797;51.662;6.748;2022-07-23T01:01:47;0.70;;;0.70;;
11481;SDS011;5797;51.662;6.748;2022-07-23T01:04:16;2.17;;;1.27;;
11481;SDS011;5797;51.662;6.748;2022-07-23T01:06:44;1.77;;;1.67;;
11481;SDS011;5797;51.662;6.748;2022-07-23T01:09:14;0.87;;;0.87;;
11481;SDS011;5797;51.662;6.748;2022-07-23T01:11:42;1.53;;;0.80;;
11481;SDS011;5797;51.662;6.748;2022-07-23T01:14:10;0.83;;;0.83;;
11481;SDS011;5797;51.662;6.748;2022-07-23T01:16:41;0.50;;;0.50;;
11481;SDS011;5797;51.662;6.748;2022-07-23T01:19:10;1.33;;;1.27;;
11481;SDS011;5797;51.662;6.748;2022-07-23T01:21:39;1.07;;;0.87;;
11481;SDS011;5797;51.662;6.748;2022-07-23T01:24:11;0.77;;;0.77;;
11481;SDS011;5797;51.662;6.748;2022-07-23T01:26:47;0.77;;;0.77;;
11481;SDS011;5797;51.662;6.748;2022-07-23T01:29:16;0.80;;;0.80;;
11481;SDS011;5797;51.662;6.748;2022-07-23T01:31:46;2.23;;;0.97;;
11481;SDS011;5797;51.662;6.748;2022-07-23T01:34:14;1.30;;;1.07;;
11481;SDS011;5797;51.662;6.748;2022-07-23T01:36:42;0.87;;;0.87;;
11481;SDS011;5797;51.662;6.748;2022-07-23T01:39:13;1.40;;;1.30;;
11481;SDS011;5797;51.662;6.748;2022-07-23T01:41:41;0.90;;;0.90;;
11481;SDS011;5797;51.662;6.748;2022-07-23T01:44:10;0.57;;;0.57;;
11481;SDS011;5797;51.662;6.748;2022-07-23T01:46:39;0.90;;;0.90;;
11481;SDS011;5797;51.662;6.748;2022-07-23T01:49:08;2.33;;;1.33;;
11481;SDS011;5797;51.662;6.748;2022-07-23T01:51:55;2.77;;;1.13;;
11481;SDS011;5797;51.662;6.748;2022-07-23T01:54:42;0.80;;;0.80;;
11481;SDS011;5797;51.662;6.748;2022-07-23T01:57:11;1.27;;;0.97;;
11481;SDS011;5797;51.662;6.748;2022-07-23T01:59:39;1.10;;;1.10;;
11481;SDS011;5797;51.662;6.748;2022-07-23T02:02:08;0.40;;;0.40;;
11481;SDS011;5797;51.662;6.748;2022-07-23T02:04:36;0.90;;;0.90;;
11481;SDS011;5797;51.662;6.748;2022-07-23T02:07:04;1.47;;;1.37;;
11481;SDS011;5797;51.662;6.748;2022-07-23T02:09:33;1.07;;;1.00;;
11481;SDS011;5797;51.662;6.748;2022-07-23T02:12:04;0.90;;;0.90;;
11481;SDS011;5797;51.662;6.748;2022-07-23T02:14:32;0.77;;;0.77;;
11481;SDS011;5797;51.662;6.748;2022-07-23T02:17:01;0.80;;;0.80;;
11481;SDS011;5797;51.662;6.748;2022-07-23T02:19:29;0.90;;;0.90;;
11481;SDS011;5797;51.662;6.748;2022-07-23T02:21:58;1.57;;;1.47;;
11481;SDS011;5797;51.662;6.748;2022-07-23T02:24:26;1.17;;;1.03;;
11481;SDS011;5797;51.662;6.748;2022-07-23T02:26:54;1.67;;;1.20;;
11481;SDS011;5797;51.662;6.748;2022-07-23T02:29:24;0.57;;;0.57;;
11481;SDS011;5797;51.662;6.748;2022-07-23T02:31:53;1.97;;;1.10;;
11481;SDS011;5797;51.662;6.748;2022-07-23T02:34:21;0.87;;;0.73;;
11481;SDS011;5797;51.662;6.748;2022-07-23T02:36:49;1.10;;;1.00;;
11481;SDS011;5797;51.662;6.748;2022-07-23T02:39:21;0.57;;;0.57;;
11481;SDS011;5797;51.662;6.748;2022-07-23T02:41:49;0.83;;;0.83;;
11481;SDS011;5797;51.662;6.748;2022-07-23T02:44:18;1.67;;;0.80;;
11481;SDS011;5797;51.662;6.748;2022-07-23T02:46:51;0.70;;;0.70;;
11481;SDS011;5797;51.662;6.748;2022-07-23T02:49:19;0.63;;;0.63;;
11481;SDS011;5797;51.662;6.748;2022-07-23T02:51:49;1.43;;;1.33;;
11481;SDS011;5797;51.662;6.748;2022-07-23T02:54:17;1.20;;;1.10;;
11481;SDS011;5797;51.662;6.748;2022-07-23T02:56:46;1.27;;;1.17;;
11481;SDS011;5797;51.662;6.748;2022-07-23T02:59:14;0.83;;;0.83;;
11481;SDS011;5797;51.662;6.748;2022-07-23T03:01:42;0.90;;;0.90;;
11481;SDS011;5797;51.662;6.748;2022-07-23T03:04:12;0.50;;;0.50;;
11481;SDS011;5797;51.662;6.748;2022-07-23T03:06:41;1.00;;;0.73;;
11481;SDS011;5797;51.662;6.748;2022-07-23T03:09:10;1.87;;;1.30;;
11481;SDS011;5797;51.662;6.748;2022-07-23T03:11:38;0.90;;;0.90;;
11481;SDS011;5797;51.662;6.748;2022-07-23T03:14:06;0.93;;;0.93;;
11481;SDS011;5797;51.662;6.748;2022-07-23T03:16:35;0.80;;;0.80;;
11481;SDS011;5797;51.662;6.748;2022-07-23T03:19:04;0.80;;;0.80;;
11481;SDS011;5797;51.662;6.748;2022-07-23T03:21:33;0.77;;;0.77;;
11481;SDS011;5797;51.662;6.748;2022-07-23T03:24:05;0.80;;;0.80;;
11481;SDS011;5797;51.662;6.748;2022-07-23T03:26:34;0.93;;;0.90;;
11481;SDS011;5797;51.662;6.748;2022-07-23T03:29:03;1.43;;;1.33;;
11481;SDS011;5797;51.662;6.748;2022-07-23T03:31:31;1.20;;;1.10;;
11481;SDS011;5797;51.662;6.748;2022-07-23T03:33:59;0.93;;;0.90;;
11481;SDS011;5797;51.662;6.748;2022-07-23T03:36:28;1.77;;;1.43;;
11481;SDS011;5797;51.662;6.748;2022-07-23T03:38:58;0.80;;;0.80;;
11481;SDS011;5797;51.662;6.748;2022-07-23T03:41:27;1.13;;;0.90;;
11481;SDS011;5797;51.662;6.748;2022-07-23T03:43:55;6.03;;;2.10;;
11481;SDS011;5797;51.662;6.748;2022-07-23T03:46:25;0.93;;;0.93;;
11481;SDS011;5797;51.662;6.748;2022-07-23T03:49:09;0.70;;;0.70;;
11481;SDS011;5797;51.662;6.748;2022-07-23T03:51:37;1.77;;;1.20;;
11481;SDS011;5797;51.662;6.748;2022-07-23T03:54:06;2.20;;;1.77;;
11481;SDS011;5797;51.662;6.748;2022-07-23T03:56:34;1.47;;;1.37;;
11481;SDS011;5797;51.662;6.748;2022-07-23T03:59:02;0.90;;;0.90;;
11481;SDS011;5797;51.662;6.748;2022-07-23T04:01:30;3.00;;;1.10;;
11481;SDS011;5797;51.662;6.748;2022-07-23T04:03:58;1.00;;;1.00;;
11481;SDS011;5797;51.662;6.748;2022-07-23T04:06:26;0.43;;;0.43;;
11481;SDS011;5797;51.662;6.748;2022-07-23T04:08:56;0.90;;;0.90;;
11481;SDS011;5797;51.662;6.748;2022-07-23T04:11:26;0.60;;;0.60;;
11481;SDS011;5797;51.662;6.748;2022-07-23T04:13:54;0.83;;;0.83;;
11481;SDS011;5797;51.662;6.748;2022-07-23T04:16:23;1.10;;;1.10;;
11481;SDS011;5797;51.662;6.748;2022-07-23T04:18:51;1.60;;;1.50;;
11481;SDS011;5797;51.662;6.748;2022-07-23T04:21:21;0.97;;;0.93;;
11481;SDS011;5797;51.662;6.748;2022-07-23T04:23:50;1.20;;;1.13;;
11481;SDS011;5797;51.662;6.748;2022-07-23T04:26:19;0.73;;;0.60;;
11481;SDS011;5797;51.662;6.748;2022-07-23T04:28:49;1.00;;;0.90;;
11481;SDS011;5797;51.662;6.748;2022-07-23T04:31:17;0.90;;;0.90;;
11481;SDS011;5797;51.662;6.748;2022-07-23T04:33:45;0.97;;;0.97;;
11481;SDS011;5797;51.662;6.748;2022-07-23T04:36:13;1.17;;;1.07;;
11481;SDS011;5797;51.662;6.748;2022-07-23T04:38:42;0.70;;;0.70;;
11481;SDS011;5797;51.662;6.748;2022-07-23T04:41:09;0.73;;;0.73;;
11481;SDS011;5797;51.662;6.748;2022-07-23T04:43:38;1.17;;;1.07;;
11481;SDS011;5797;51.662;6.748;2022-07-23T04:46:08;0.80;;;0.77;;
11481;SDS011;5797;51.662;6.748;2022-07-23T04:48:43;1.57;;;1.47;;
11481;SDS011;5797;51.662;6.748;2022-07-23T04:51:11;1.33;;;1.23;;
11481;SDS011;5797;51.662;6.748;2022-07-23T04:53:39;1.93;;;1.20;;
11481;SDS011;5797;51.662;6.748;2022-07-23T04:56:07;1.23;;;1.17;;
11481;SDS011;5797;51.662;6.748;2022-07-23T04:58:36;1.67;;;1.53;;
11481;SDS011;5797;51.662;6.748;2022-07-23T05:01:04;2.83;;;1.63;;
11481;SDS011;5797;51.662;6.748;2022-07-23T05:03:36;2.27;;;1.57;;
11481;SDS011;5797;51.662;6.748;2022-07-23T05:06:04;0.60;;;0.60;;
11481;SDS011;5797;51.662;6.748;2022-07-23T05:08:32;1.70;;;0.90;;
11481;SDS011;5797;51.662;6.748;2022-07-23T05:11:00;1.43;;;1.33;;
11481;SDS011;5797;51.662;6.748;2022-07-23T05:13:29;1.63;;;1.53;;
11481;SDS011;5797;51.662;6.748;2022-07-23T05:15:57;1.37;;;1.17;;
11481;SDS011;5797;51.662;6.748;2022-07-23T05:18:26;0.67;;;0.60;;
11481;SDS011;5797;51.662;6.748;2022-07-23T05:20:56;1.73;;;1.63;;
11481;SDS011;5797;51.662;6.748;2022-07-23T05:23:24;0.90;;;0.90;;
11481;SDS011;5797;51.662;6.748;2022-07-23T05:25:52;1.33;;;1.00;;
11481;SDS011;5797;51.662;6.748;2022-07-23T05:28:23;1.47;;;1.43;;
11481;SDS011;5797;51.662;6.748;2022-07-23T05:30:52;1.37;;;1.23;;
11481;SDS011;5797;51.662;6.748;2022-07-23T05:33:21;2.57;;;1.87;;
11481;SDS011;5797;51.662;6.748;2022-07-23T05:35:49;3.13;;;2.10;;
11481;SDS011;5797;51.662;6.748;2022-07-23T05:38:29;1.50;;;1.40;;
11481;SDS011;5797;51.662;6.748;2022-07-23T05:40:59;1.00;;;1.00;;
11481;SDS011;5797;51.662;6.748;2022-07-23T05:43:28;1.30;;;1.13;;
11481;SDS011;5797;51.662;6.748;2022-07-23T05:45:59;9.03;;;1.93;;
11481;SDS011;5797;51.662;6.748;2022-07-23T05:48:28;2.00;;;1.90;;
11481;SDS011;5797;51.662;6.748;2022-07-23T05:51:01;1.77;;;1.40;;
11481;SDS011;5797;51.662;6.748;2022-07-23T05:53:34;1.63;;;1.10;;
11481;SDS011;5797;51.662;6.748;2022-07-23T05:56:14;2.00;;;1.87;;
11481;SDS011;5797;51.662;6.748;2022-07-23T05:58:42;3.70;;;1.90;;
11481;SDS011;5797;51.662;6.748;2022-07-23T06:01:12;3.07;;;2.40;;
11481;SDS011;5797;51.662;6.748;2022-07-23T06:03:50;3.40;;;1.97;;
11481;SDS011;5797;51.662;6.748;2022-07-23T06:06:18;4.57;;;3.13;;
11481;SDS011;5797;51.662;6.748;2022-07-23T06:08:47;5.97;;;2.77;;
11481;SDS011;5797;51.662;6.748;2022-07-23T06:11:15;3.70;;;2.77;;
11481;SDS011;5797;51.662;6.748;2022-07-23T06:13:44;2.90;;;2.70;;
11481;SDS011;5797;51.662;6.748;2022-07-23T06:16:12;2.57;;;2.37;;
11481;SDS011;5797;51.662;6.748;2022-07-23T06:18:41;2.47;;;2.27;;
11481;SDS011;5797;51.662;6.748;2022-07-23T06:21:10;3.13;;;2.00;;
11481;SDS011;5797;51.662;6.748;2022-07-23T06:24:00;2.37;;;2.03;;
11481;SDS011;5797;51.662;6.748;2022-07-23T06:26:28;2.57;;;2.33;;
11481;SDS011;5797;51.662;6.748;2022-07-23T06:28:56;2.03;;;1.90;;
11481;SDS011;5797;51.662;6.748;2022-07-23T06:31:25;3.30;;;2.60;;
11481;SDS011;5797;51.662;6.748;2022-07-23T06:33:53;3.73;;;2.50;;
11481;SDS011;5797;51.662;6.748;2022-07-23T06:36:21;3.40;;;2.07;;
11481;SDS011;5797;51.662;6.748;2022-07-23T06:38:49;1.40;;;1.30;;
11481;SDS011;5797;51.662;6.748;2022-07-23T06:41:19;1.80;;;1.60;;
11481;SDS011;5797;51.662;6.748;2022-07-23T06:43:47;1.77;;;1.67;;
11481;SDS011;5797;51.662;6.748;2022-07-23T06:46:16;0.73;;;0.73;;
11481;SDS011;5797;51.662;6.748;2022-07-23T06:48:48;2.30;;;1.23;;
11481;SDS011;5797;51.662;6.748;2022-07-23T06:51:17;1.07;;;0.80;;
11481;SDS011;5797;51.662;6.748;2022-07-23T06:53:45;2.00;;;1.73;;
11481;SDS011;5797;51.662;6.748;2022-07-23T06:56:13;2.20;;;1.93;;
11481;SDS011;5797;51.662;6.748;2022-07-23T06:58:42;0.70;;;0.70;;
11481;SDS011;5797;51.662;6.748;2022-07-23T07:01:11;2.13;;;1.90;;
11481;SDS011;5797;51.662;6.748;2022-07-23T07:03:40;2.63;;;1.30;;
11481;SDS011;5797;51.662;6.748;2022-07-23T07:06:08;1.53;;;1.43;;
11481;SDS011;5797;51.662;6.748;2022-07-23T07:08:36;1.57;;;1.47;;
11481;SDS011;5797;51.662;6.748;2022-07-23T07:11:04;1.23;;;1.17;;
11481;SDS011;5797;51.662;6.748;2022-07-23T07:13:32;1.10;;;1.10;;
11481;SDS011;5797;51.662;6.748;2022-07-23T07:16:01;1.10;;;1.00;;
11481;SDS011;5797;51.662;6.748;2022-07-23T07:18:30;1.23;;;0.93;;
11481;SDS011;5797;51.662;6.748;2022-07-23T07:20:58;0.97;;;0.97;;
11481;SDS011;5797;51.662;6.748;2022-07-23T07:23:26;1.20;;;1.10;;
11481;SDS011;5797;51.662;6.748;2022-07-23T07:25:54;1.23;;;1.13;;
11481;SDS011;5797;51.662;6.748;2022-07-23T07:28:25;1.10;;;1.10;;
11481;SDS011;5797;51.662;6.748;2022-07-23T07:30:53;1.43;;;1.33;;
11481;SDS011;5797;51.662;6.748;2022-07-23T07:33:23;0.70;;;0.70;;
11481;SDS011;5797;51.662;6.748;2022-07-23T07:35:51;1.60;;;1.03;;
11481;SDS011;5797;51.662;6.748;2022-07-23T07:38:19;1.43;;;1.33;;
11481;SDS011;5797;51.662;6.748;2022-07-23T07:40:47;1.27;;;1.17;;
11481;SDS011;5797;51.662;6.748;2022-07-23T07:43:15;0.80;;;0.80;;
11481;SDS011;5797;51.662;6.748;2022-07-23T07:45:43;0.80;;;0.80;;
11481;SDS011;5797;51.662;6.748;2022-07-23T07:48:11;0.90;;;0.90;;
11481;SDS011;5797;51.662;6.748;2022-07-23T07:50:40;0.57;;;0.57;;
11481;SDS011;5797;51.662;6.748;2022-07-23T07:53:08;2.47;;;1.50;;
11481;SDS011;5797;51.662;6.748;2022-07-23T07:55:36;1.33;;;1.10;;
11481;SDS011;5797;51.662;6.748;2022-07-23T07:58:04;2.10;;;1.30;;
11481;SDS011;5797;51.662;6.748;2022-07-23T08:00:32;1.13;;;1.10;;
11481;SDS011;5797;51.662;6.748;2022-07-23T08:03:00;1.00;;;1.00;;
11481;SDS011;5797;51.662;6.748;2022-07-23T08:05:28;2.83;;;1.00;;
11481;SDS011;5797;51.662;6.748;2022-07-23T08:07:58;1.50;;;1.40;;
11481;SDS011;5797;51.662;6.748;2022-07-23T08:10:27;1.10;;;1.10;;
11481;SDS011;5797;51.662;6.748;2022-07-23T08:12:56;0.83;;;0.70;;
11481;SDS011;5797;51.662;6.748;2022-07-23T08:15:25;0.80;;;0.80;;
11481;SDS011;5797;51.662;6.748;2022-07-23T08:17:54;0.87;;;0.73;;
11481;SDS011;5797;51.662;6.748;2022-07-23T08:20:23;1.43;;;1.20;;
11481;SDS011;5797;51.662;6.748;2022-07-23T08:22:52;0.80;;;0.80;;
11481;SDS011;5797;51.662;6.748;2022-07-23T08:25:23;0.83;;;0.83;;
11481;SDS011;5797;51.662;6.748;2022-07-23T08:27:52;0.60;;;0.60;;
11481;SDS011;5797;51.662;6.748;2022-07-23T08:30:21;1.10;;;1.00;;
11481;SDS011;5797;51.662;6.748;2022-07-23T08:32:50;1.73;;;1.30;;
11481;SDS011;5797;51.662;6.748;2022-07-23T08:35:21;0.98;;;0.95;;
11481;SDS011;5797;51.662;6.748;2022-07-23T08:37:50;2.47;;;1.23;;
11481;SDS011;5797;51.662;6.748;2022-07-23T08:40:18;1.30;;;1.20;;
11481;SDS011;5797;51.662;6.748;2022-07-23T08:42:49;1.27;;;1.20;;
11481;SDS011;5797;51.662;6.748;2022-07-23T08:45:17;2.25;;;1.95;;
11481;SDS011;5797;51.662;6.748;2022-07-23T08:47:48;3.72;;;1.77;;
11481;SDS011;5797;51.662;6.748;2022-07-23T08:50:18;1.00;;;0.98;;
11481;SDS011;5797;51.662;6.748;2022-07-23T08:52:48;0.70;;;0.70;;
11481;SDS011;5797;51.662;6.748;2022-07-23T08:55:16;1.25;;;1.00;;
11481;SDS011;5797;51.662;6.748;2022-07-23T08:57:45;1.55;;;1.48;;
11481;SDS011;5797;51.662;6.748;2022-07-23T09:00:17;0.50;;;0.50;;
11481;SDS011;5797;51.662;6.748;2022-07-23T09:02:46;0.98;;;0.90;;
11481;SDS011;5797;51.662;6.748;2022-07-23T09:05:15;1.75;;;1.65;;
11481;SDS011;5797;51.662;6.748;2022-07-23T09:10:43;1.50;;;1.30;;
11481;SDS011;5797;51.662;6.748;2022-07-23T09:13:27;0.70;;;0.70;;
11481;SDS011;5797;51.662;6.748;2022-07-23T09:15:57;0.88;;;0.88;;
11481;SDS011;5797;51.662;6.748;2022-07-23T09:18:30;0.90;;;0.90;;
11481;SDS011;5797;51.662;6.748;2022-07-23T09:21:06;0.80;;;0.80;;
11481;SDS011;5797;51.662;6.748;2022-07-23T09:23:44;1.40;;;1.30;;
11481;SDS011;5797;51.662;6.748;2022-07-23T09:26:20;1.65;;;0.90;;
11481;SDS011;5797;51.662;6.748;2022-07-23T09:29:01;1.67;;;1.30;;
11481;SDS011;5797;51.662;6.748;2022-07-23T09:31:32;0.70;;;0.70;;
11481;SDS011;5797;51.662;6.748;2022-07-23T09:34:08;0.60;;;0.60;;
11481;SDS011;5797;51.662;6.748;2022-07-23T09:36:38;1.40;;;1.10;;
11481;SDS011;5797;51.662;6.748;2022-07-23T09:39:06;0.80;;;0.80;;
11481;SDS011;5797;51.662;6.748;2022-07-23T09:41:36;0.50;;;0.50;;
11481;SDS011;5797;51.662;6.748;2022-07-23T09:44:20;0.68;;;0.68;;
11481;SDS011;5797;51.662;6.748;2022-07-23T09:46:57;1.13;;;0.98;;
11481;SDS011;5797;51.662;6.748;2022-07-23T09:49:26;2.25;;;1.23;;
11481;SDS011;5797;51.662;6.748;2022-07-23T09:51:55;0.90;;;0.90;;
11481;SDS011;5797;51.662;6.748;2022-07-23T09:54:26;0.70;;;0.70;;
11481;SDS011;5797;51.662;6.748;2022-07-23T09:57:01;1.23;;;1.13;;
11481;SDS011;5797;51.662;6.748;2022-07-23T09:59:49;0.85;;;0.85;;
11481;SDS011;5797;51.662;6.748;2022-07-23T10:02:17;1.15;;;1.00;;
11481;SDS011;5797;51.662;6.748;2022-07-23T10:05:08;0.80;;;0.80;;
11481;SDS011;5797;51.662;6.748;2022-07-23T10:08:05;0.70;;;0.70;;
11481;SDS011;5797;51.662;6.748;2022-07-23T10:10:52;0.80;;;0.80;;
11481;SDS011;5797;51.662;6.748;2022-07-23T10:13:21;1.08;;;1.05;;
11481;SDS011;5797;51.662;6.748;2022-07-23T10:16:10;1.23;;;1.13;;
11481;SDS011;5797;51.662;6.748;2022-07-23T10:18:38;1.23;;;1.10;;
11481;SDS011;5797;51.662;6.748;2022-07-23T10:21:10;0.77;;;0.77;;
11481;SDS011;5797;51.662;6.748;2022-07-23T10:23:39;1.30;;;1.20;;
11481;SDS011;5797;51.662;6.748;2022-07-23T10:26:11;0.63;;;0.63;;
11481;SDS011;5797;51.662;6.748;2022-07-23T10:29:01;0.60;;;0.60;;
11481;SDS011;5797;51.662;6.748;2022-07-23T10:31:41;0.70;;;0.70;;
11481;SDS011;5797;51.662;6.748;2022-07-23T10:34:30;1.05;;;0.98;;
11481;SDS011;5797;51.662;6.748;2022-07-23T10:37:06;2.55;;;1.63;;
11481;SDS011;5797;51.662;6.748;2022-07-23T10:39:42;1.23;;;1.13;;
11481;SDS011;5797;51.662;6.748;2022-07-23T10:42:10;1.25;;;1.15;;
11481;SDS011;5797;51.662;6.748;2022-07-23T10:44:40;1.20;;;1.10;;
11481;SDS011;5797;51.662;6.748;2022-07-23T10:47:11;1.00;;;0.90;;
11481;SDS011;5797;51.662;6.748;2022-07-23T10:50:19;1.02;;;0.90;;
11481;SDS011;5797;51.662;6.748;2022-07-23T10:55:50;0.95;;;0.95;;
11481;SDS011;5797;51.662;6.748;2022-07-23T10:58:22;2.83;;;1.20;;
11481;SDS011;5797;51.662;6.748;2022-07-23T11:00:53;0.88;;;0.88;;
11481;SDS011;5797;51.662;6.748;2022-07-23T11:03:29;0.85;;;0.85;;
11481;SDS011;5797;51.662;6.748;2022-07-23T11:06:02;1.30;;;1.20;;
11481;SDS011;5797;51.662;6.748;2022-07-23T11:08:30;1.08;;;1.00;;
11481;SDS011;5797;51.662;6.748;2022-07-23T11:11:09;0.90;;;0.90;;
11481;SDS011;5797;51.662;6.748;2022-07-23T11:13:45;1.60;;;1.00;;
11481;SDS011;5797;51.662;6.748;2022-07-23T11:16:15;1.75;;;1.65;;
11481;SDS011;5797;51.662;6.748;2022-07-23T11:18:57;1.20;;;1.10;;
11481;SDS011;5797;51.662;6.748;2022-07-23T11:21:46;0.90;;;0.90;;
11481;SDS011;5797;51.662;6.748;2022-07-23T11:24:29;0.90;;;0.90;;
11481;SDS011;5797;51.662;6.748;2022-07-23T11:26:58;1.05;;;0.85;;
11481;SDS011;5797;51.662;6.748;2022-07-23T11:29:43;1.45;;;1.20;;
11481;SDS011;5797;51.662;6.748;2022-07-23T11:32:23;1.65;;;1.52;;
11481;SDS011;5797;51.662;6.748;2022-07-23T11:34:55;1.00;;;1.00;;
11481;SDS011;5797;51.662;6.748;2022-07-23T11:37:28;2.10;;;1.02;;
11481;SDS011;5797;51.662;6.748;2022-07-23T11:39:59;1.30;;;1.20;;
11481;SDS011;5797;51.662;6.748;2022-07-23T11:42:28;1.63;;;1.30;;
11481;SDS011;5797;51.662;6.748;2022-07-23T11:44:57;1.17;;;1.08;;
11481;SDS011;5797;51.662;6.748;2022-07-23T11:47:25;1.27;;;1.17;;
11481;SDS011;5797;51.662;6.748;2022-07-23T11:49:56;0.90;;;0.90;;
11481;SDS011;5797;51.662;6.748;2022-07-23T11:52:25;0.90;;;0.90;;
11481;SDS011;5797;51.662;6.748;2022-07-23T11:54:55;1.20;;;1.10;;
11481;SDS011;5797;51.662;6.748;2022-07-23T11:57:25;0.68;;;0.68;;
11481;SDS011;5797;51.662;6.748;2022-07-23T11:59:56;1.40;;;1.30;;
11481;SDS011;5797;51.662;6.748;2022-07-23T12:02:24;2.50;;;1.40;;
11481;SDS011;5797;51.662;6.748;2022-07-23T12:04:53;3.03;;;1.45;;
11481;SDS011;5797;51.662;6.748;2022-07-23T12:07:26;2.05;;;1.73;;
11481;SDS011;5797;51.662;6.748;2022-07-23T12:09:56;1.58;;;1.48;;
11481;SDS011;5797;51.662;6.748;2022-07-23T12:12:25;1.20;;;1.10;;
11481;SDS011;5797;51.662;6.748;2022-07-23T12:14:54;1.05;;;1.05;;
11481;SDS011;5797;51.662;6.748;2022-07-23T12:17:28;1.63;;;1.52;;
11481;SDS011;5797;51.662;6.748;2022-07-23T12:19:57;1.27;;;1.20;;
11481;SDS011;5797;51.662;6.748;2022-07-23T12:22:33;1.30;;;1.20;;
11481;SDS011;5797;51.662;6.748;2022-07-23T12:25:03;1.23;;;1.15;;
11481;SDS011;5797;51.662;6.748;2022-07-23T12:27:33;1.40;;;1.30;;
11481;SDS011;5797;51.662;6.748;2022-07-23T12:30:21;1.40;;;1.30;;
11481;SDS011;5797;51.662;6.748;2022-07-23T12:32:51;1.60;;;1.42;;
11481;SDS011;5797;51.662;6.748;2022-07-23T12:35:20;1.98;;;1.70;;
11481;SDS011;5797;51.662;6.748;2022-07-23T12:37:50;1.33;;;1.20;;
11481;SDS011;5797;51.662;6.748;2022-07-23T12:40:22;1.55;;;1.40;;
11481;SDS011;5797;51.662;6.748;2022-07-23T12:42:55;1.30;;;1.20;;
11481;SDS011;5797;51.662;6.748;2022-07-23T12:45:24;1.35;;;1.25;;
11481;SDS011;5797;51.662;6.748;2022-07-23T12:48:00;1.60;;;1.50;;
11481;SDS011;5797;51.662;6.748;2022-07-23T12:50:31;1.40;;;1.30;;
11481;SDS011;5797;51.662;6.748;2022-07-23T12:53:04;2.92;;;1.20;;
11481;SDS011;5797;51.662;6.748;2022-07-23T12:55:39;1.02;;;1.02;;
11481;SDS011;5797;51.662;6.748;2022-07-23T12:58:38;1.08;;;1.02;;
11481;SDS011;5797;51.662;6.748;2022-07-23T13:01:09;1.25;;;1.15;;
11481;SDS011;5797;51.662;6.748;2022-07-23T13:03:38;0.95;;;0.95;;
11481;SDS011;5797;51.662;6.748;2022-07-23T13:06:08;1.08;;;1.00;;
11481;SDS011;5797;51.662;6.748;2022-07-23T13:08:38;1.65;;;1.20;;
11481;SDS011;5797;51.662;6.748;2022-07-23T13:11:07;1.20;;;1.15;;
11481;SDS011;5797;51.662;6.748;2022-07-23T13:13:35;1.52;;;1.42;;
11481;SDS011;5797;51.662;6.748;2022-07-23T13:16:03;2.03;;;1.08;;
11481;SDS011;5797;51.662;6.748;2022-07-23T13:18:36;1.00;;;1.00;;
11481;SDS011;5797;51.662;6.748;2022-07-23T13:21:04;1.05;;;1.02;;
11481;SDS011;5797;51.662;6.748;2022-07-23T13:23:32;1.05;;;1.00;;
11481;SDS011;5797;51.662;6.748;2022-07-23T13:26:02;1.40;;;1.30;;
11481;SDS011;5797;51.662;6.748;2022-07-23T13:28:29;1.38;;;1.27;;
11481;SDS011;5797;51.662;6.748;2022-07-23T13:30:57;2.00;;;1.48;;
11481;SDS011;5797;51.662;6.748;2022-07-23T13:33:25;1.30;;;1.20;;
11481;SDS011;5797;51.662;6.748;2022-07-23T13:36:00;1.55;;;1.45;;
11481;SDS011;5797;51.662;6.748;2022-07-23T13:38:28;1.23;;;1.13;;
11481;SDS011;5797;51.662;6.748;2022-07-23T13:40:56;1.20;;;1.10;;
11481;SDS011;5797;51.662;6.748;2022-07-23T13:43:26;1.50;;;1.02;;
11481;SDS011;5797;51.662;6.748;2022-07-23T13:45:54;1.20;;;1.10;;
11481;SDS011;5797;51.662;6.748;2022-07-23T13:48:22;1.40;;;1.30;;
11481;SDS011;5797;51.662;6.748;2022-07-23T13:50:50;1.23;;;1.13;;
11481;SDS011;5797;51.662;6.748;2022-07-23T13:53:19;1.27;;;1.20;;
11481;SDS011;5797;51.662;6.748;2022-07-23T13:55:48;1.92;;;1.73;;
11481;SDS011;5797;51.662;6.748;2022-07-23T13:58:17;1.83;;;1.73;;
11481;SDS011;5797;51.662;6.748;2022-07-23T14:00:48;1.75;;;1.60;;
11481;SDS011;5797;51.662;6.748;2022-07-23T14:03:19;1.42;;;1.33;;
11481;SDS011;5797;51.662;6.748;2022-07-23T14:05:49;1.42;;;1.33;;
11481;SDS011;5797;51.662;6.748;2022-07-23T14:08:17;2.38;;;1.67;;
11481;SDS011;5797;51.662;6.748;2022-07-23T14:10:47;1.58;;;1.48;;
11481;SDS011;5797;51.662;6.748;2022-07-23T14:13:15;1.30;;;1.20;;
11481;SDS011;5797;51.662;6.748;2022-07-23T14:15:43;1.45;;;1.35;;
11481;SDS011;5797;51.662;6.748;2022-07-23T14:18:12;1.15;;;1.15;;
11481;SDS011;5797;51.662;6.748;2022-07-23T14:20:40;1.85;;;1.60;;
11481;SDS011;5797;51.662;6.748;2022-07-23T14:23:08;1.30;;;1.20;;
11481;SDS011;5797;51.662;6.748;2022-07-23T14:25:36;2.40;;;1.80;;
11481;SDS011;5797;51.662;6.748;2022-07-23T14:28:04;1.60;;;1.50;;
11481;SDS011;5797;51.662;6.748;2022-07-23T14:30:32;1.10;;;1.10;;
11481;SDS011;5797;51.662;6.748;2022-07-23T14:33:00;1.50;;;1.40;;
11481;SDS011;5797;51.662;6.748;2022-07-23T14:35:30;1.52;;;1.30;;
11481;SDS011;5797;51.662;6.748;2022-07-23T14:37:59;1.55;;;1.45;;
11481;SDS011;5797;51.662;6.748;2022-07-23T14:40:26;1.50;;;1.40;;
11481;SDS011;5797;51.662;6.748;2022-07-23T14:42:54;1.67;;;1.58;;
11481;SDS011;5797;51.662;6.748;2022-07-23T14:45:22;2.38;;;1.77;;
11481;SDS011;5797;51.662;6.748;2022-07-23T14:47:51;1.70;;;1.60;;
11481;SDS011;5797;51.662;6.748;2022-07-23T14:50:19;1.73;;;1.63;;
11481;SDS011;5797;51.662;6.748;2022-07-23T14:52:48;1.85;;;1.40;;
11481;SDS011;5797;51.662;6.748;2022-07-23T14:55:16;1.40;;;1.30;;
11481;SDS011;5797;51.662;6.748;2022-07-23T14:57:44;1.50;;;1.40;;
11481;SDS011;5797;51.662;6.748;2022-07-23T15:00:12;1.70;;;1.50;;
11481;SDS011;5797;51.662;6.748;2022-07-23T15:03:01;1.48;;;1.38;;
11481;SDS011;5797;51.662;6.748;2022-07-23T15:05:29;2.95;;;1.60;;
11481;SDS011;5797;51.662;6.748;2022-07-23T15:07:58;2.45;;;1.73;;
11481;SDS011;5797;51.662;6.748;2022-07-23T15:10:26;1.73;;;1.60;;
11481;SDS011;5797;51.662;6.748;2022-07-23T15:12:53;2.05;;;1.85;;
11481;SDS011;5797;51.662;6.748;2022-07-23T15:15:21;1.92;;;1.73;;
11481;SDS011;5797;51.662;6.748;2022-07-23T15:17:49;2.80;;;1.70;;
11481;SDS011;5797;51.662;6.748;2022-07-23T15:20:17;2.13;;;1.63;;
11481;SDS011;5797;51.662;6.748;2022-07-23T15:23:00;1.50;;;1.40;;
11481;SDS011;5797;51.662;6.748;2022-07-23T15:25:28;1.67;;;1.58;;
11481;SDS011;5797;51.662;6.748;2022-07-23T15:27:56;2.45;;;1.35;;